PGUM/GUM METAR and TAF weather

Enter ICAO airport designator
Station Type Date Time Source
PGUM METAR 2020/07/15 04:04 UTC NOAA

PGUM 150404Z 09014KT 10SM BKN024 31/24 A2982 RMK AO2 T03110244


Station Type Date Time Source
PGUM Decoded METAR 2020/07/15 04:04 UTC NOAA

Agana, Guam International Airport, GU, United States (PGUM) 13-29N 144-48E
Jul 15, 2020 - 12:04 AM EDT / 2020.07.15 0404 UTC
Wind: from the E (090 degrees) at 16 MPH (14 KT):0
Visibility: 10 mile(s):0
Sky conditions: mostly cloudy
Temperature: 88.0 F (31.1 C)
Heat index: 98.6 F (37.0 C):1
Dew Point: 75.9 F (24.4 C)
Relative Humidity: 67%
Pressure (altimeter): 29.82 in. Hg (1009 hPa)
ob: PGUM 150404Z 09014KT 10SM BKN024 31/24 A2982 RMK AO2 T03110244
cycle: 4

Station Type Date Time Source
PGUM TAF 2020/07/14 19:57 UTC NOAA

TAF
AMD PGUM 141855Z 1419/1524 09011KT P6SM VCSH SCT020 SCT040

Example: see airport list